createdAt,value
2018-08-04T00:00:39.854Z,40.30
2018-08-04T00:03:09.060Z,19.20
2018-08-04T00:05:38.221Z,19.50
2018-08-04T00:08:07.399Z,19.73
2018-08-04T00:10:36.555Z,20.70
2018-08-04T00:13:05.750Z,20.70
2018-08-04T00:15:34.943Z,20.30
2018-08-04T00:18:04.027Z,22.43
2018-08-04T00:20:33.194Z,46.53
2018-08-04T00:23:02.361Z,22.40
2018-08-04T00:25:31.678Z,23.13
2018-08-04T00:28:00.823Z,24.60
2018-08-04T00:30:30.006Z,29.30
2018-08-04T00:32:59.208Z,23.17
2018-08-04T00:35:28.325Z,21.57
2018-08-04T00:37:57.530Z,22.73
2018-08-04T00:40:27.230Z,22.55
2018-08-04T00:42:56.400Z,21.40
2018-08-04T00:45:25.616Z,22.37
2018-08-04T00:47:54.879Z,21.95
2018-08-04T00:50:24.005Z,21.10
2018-08-04T00:52:53.192Z,21.93
2018-08-04T00:55:22.291Z,21.40
2018-08-04T00:57:51.492Z,21.15
2018-08-04T01:00:20.606Z,20.93
2018-08-04T01:02:49.769Z,20.62
2018-08-04T01:05:18.890Z,20.87
2018-08-04T01:07:47.905Z,22.43
2018-08-04T01:10:17.034Z,22.47
2018-08-04T01:12:46.138Z,21.43
2018-08-04T01:15:15.422Z,21.20
2018-08-04T01:17:44.495Z,21.53
2018-08-04T01:20:13.682Z,22.00
2018-08-04T01:22:42.847Z,22.20
2018-08-04T01:25:12.052Z,23.07
2018-08-04T01:27:41.317Z,23.05
2018-08-04T01:30:11.287Z,99.75
2018-08-04T01:32:41.342Z,28.95
2018-08-04T01:35:11.347Z,24.92
2018-08-04T01:37:41.230Z,21.57
2018-08-04T01:40:11.351Z,23.45
2018-08-04T01:42:41.265Z,23.57
2018-08-04T01:45:11.406Z,22.60
2018-08-04T01:47:41.355Z,54.60
2018-08-04T01:50:11.442Z,33.00
2018-08-04T01:52:41.459Z,25.82
2018-08-04T01:55:11.692Z,23.60
2018-08-04T01:57:41.463Z,23.62
2018-08-04T02:00:11.445Z,23.83
2018-08-04T02:02:41.525Z,24.80
2018-08-04T02:05:11.313Z,25.30
2018-08-04T02:07:41.506Z,24.32
2018-08-04T02:10:12.513Z,22.32
2018-08-04T02:12:41.590Z,24.40
2018-08-04T02:15:11.409Z,25.30
2018-08-04T02:17:41.535Z,25.20
2018-08-04T02:20:11.486Z,25.97
2018-08-04T02:22:41.361Z,25.96
2018-08-04T02:25:11.482Z,24.13
2018-08-04T02:27:41.597Z,25.24
2018-08-04T02:30:11.626Z,46.85
2018-08-04T02:32:41.643Z,47.04
2018-08-04T02:35:11.668Z,40.88
2018-08-04T02:37:41.709Z,29.36
2018-08-04T02:40:11.651Z,25.95
2018-08-04T02:42:41.394Z,24.74
2018-08-04T02:45:11.460Z,25.80
2018-08-04T02:47:41.510Z,70.20
2018-08-04T02:50:11.531Z,55.07
2018-08-04T02:52:41.722Z,36.90
2018-08-04T02:55:11.819Z,26.75
2018-08-04T02:57:41.849Z,23.68
2018-08-04T03:00:12.115Z,24.45
2018-08-04T03:02:42.054Z,25.22
2018-08-04T03:05:11.774Z,23.77
2018-08-04T03:07:41.862Z,24.92
2018-08-04T03:10:11.922Z,61.80
2018-08-04T03:12:41.995Z,32.88
2018-08-04T03:15:11.946Z,51.08
2018-08-04T03:17:42.030Z,25.80
2018-08-04T03:20:11.979Z,25.10
2018-08-04T03:22:41.942Z,25.58
2018-08-04T03:25:11.950Z,24.18
2018-08-04T03:27:42.014Z,24.02
2018-08-04T03:30:12.139Z,52.10
2018-08-04T03:32:42.054Z,56.06
2018-08-04T03:35:12.049Z,50.65
2018-08-04T03:37:42.102Z,34.20
2018-08-04T03:40:12.096Z,27.58
2018-08-04T03:42:42.130Z,27.68
2018-08-04T03:45:12.154Z,26.93
2018-08-04T03:47:42.259Z,25.36
2018-08-04T03:50:12.243Z,24.50
2018-08-04T03:52:42.236Z,35.30
2018-08-04T03:55:12.282Z,39.05
2018-08-04T03:57:42.174Z,26.00
2018-08-04T04:00:12.255Z,25.35
2018-08-04T04:02:42.308Z,26.64
2018-08-04T04:05:12.290Z,24.70
2018-08-04T04:07:42.370Z,34.95
2018-08-04T04:10:12.167Z,30.68
2018-08-04T04:12:42.379Z,25.48
2018-08-04T04:15:12.337Z,25.80
2018-08-04T04:17:47.515Z,27.62
2018-08-04T04:20:18.739Z,27.17
2018-08-04T04:22:48.301Z,25.23
2018-08-04T04:25:17.470Z,25.93
2018-08-04T04:27:46.611Z,26.80
2018-08-04T04:30:15.829Z,26.50
2018-08-04T04:32:45.041Z,26.37
2018-08-04T04:35:14.240Z,26.23
2018-08-04T04:37:43.462Z,26.10
2018-08-04T04:40:12.574Z,23.07
2018-08-04T04:42:42.629Z,25.06
2018-08-04T04:45:12.636Z,24.00
2018-08-04T04:47:42.550Z,25.52
2018-08-04T04:50:12.618Z,24.52
2018-08-04T04:52:42.599Z,25.78
2018-08-04T04:55:12.548Z,24.32
2018-08-04T04:57:42.636Z,24.96
2018-08-04T05:00:12.643Z,24.95
2018-08-04T05:02:42.842Z,26.94
2018-08-04T05:05:12.773Z,26.33
2018-08-04T05:07:42.696Z,24.32
2018-08-04T05:10:12.681Z,25.00
2018-08-04T05:12:42.839Z,24.98
2018-08-04T05:15:12.822Z,25.50
2018-08-04T05:17:42.798Z,26.18
2018-08-04T05:20:12.830Z,23.95
2018-08-04T05:22:42.806Z,26.82
2018-08-04T05:25:12.873Z,24.10
2018-08-04T05:27:42.897Z,24.72
2018-08-04T05:30:12.943Z,24.75
2018-08-04T05:32:42.881Z,26.52
2018-08-04T05:35:13.002Z,24.60
2018-08-04T05:37:43.987Z,24.80
2018-08-04T05:40:13.230Z,24.93
2018-08-04T05:42:42.757Z,27.92
2018-08-04T05:45:12.887Z,30.17
2018-08-04T05:47:43.031Z,27.88
2018-08-04T05:50:13.085Z,27.37
2018-08-04T05:52:43.049Z,27.96
2018-08-04T05:55:13.154Z,28.27
2018-08-04T05:57:43.166Z,30.08
2018-08-04T06:00:13.082Z,27.95
2018-08-04T06:02:43.198Z,29.18
2018-08-04T06:05:13.224Z,32.38
2018-08-04T06:07:43.235Z,30.48
2018-08-04T06:10:13.199Z,30.17
2018-08-04T06:12:43.303Z,28.75
2018-08-04T06:15:13.332Z,26.97
2018-08-04T06:17:43.234Z,29.40
2018-08-04T06:20:13.346Z,25.65
2018-08-04T06:22:43.401Z,28.60
2018-08-04T06:25:13.407Z,28.30
2018-08-04T06:27:43.542Z,28.18
2018-08-04T06:30:13.554Z,29.40
2018-08-04T06:32:43.713Z,27.14
2018-08-04T06:35:13.550Z,30.52
2018-08-04T06:37:43.505Z,29.24
2018-08-04T06:40:13.484Z,30.60
2018-08-04T06:42:43.553Z,30.44
2018-08-04T06:45:13.569Z,29.85
2018-08-04T06:47:43.574Z,30.04
2018-08-04T06:50:13.676Z,28.17
2018-08-04T06:52:43.820Z,29.02
2018-08-04T06:55:13.570Z,29.35
2018-08-04T06:57:43.704Z,27.42
2018-08-04T07:00:13.770Z,24.65
2018-08-04T07:02:43.770Z,26.52
2018-08-04T07:05:13.817Z,25.12
2018-08-04T07:07:43.896Z,25.24
2018-08-04T07:10:13.908Z,25.97
2018-08-04T07:12:43.979Z,25.42
2018-08-04T07:15:13.948Z,24.60
2018-08-04T07:17:43.838Z,24.06
2018-08-04T07:20:13.995Z,24.10
2018-08-04T07:22:44.228Z,23.56
2018-08-04T07:25:13.875Z,24.45
2018-08-04T07:27:44.024Z,24.94
2018-08-04T07:30:15.358Z,25.82
2018-08-04T07:32:45.656Z,25.63
2018-08-04T07:35:14.826Z,26.33
2018-08-04T07:37:45.110Z,25.32
2018-08-04T07:40:14.229Z,25.03
2018-08-04T08:04:20.323Z,22.82
2018-08-04T08:06:50.474Z,23.45
2018-08-04T08:09:20.542Z,24.60
2018-08-04T08:11:51.162Z,22.60
2018-08-04T08:14:20.938Z,22.97
2018-08-04T08:16:51.011Z,24.90
2018-08-04T08:19:21.062Z,24.40
2018-08-04T08:21:51.046Z,23.83
2018-08-04T08:24:21.158Z,23.00
2018-08-04T08:26:51.496Z,20.70
2018-08-04T08:29:21.433Z,21.48
2018-08-04T08:31:52.198Z,20.13
2018-08-04T08:34:22.039Z,20.30
2018-08-04T08:36:52.524Z,20.97
2018-08-04T08:39:21.841Z,19.30
2018-08-04T08:41:51.542Z,20.57
2018-08-04T08:44:21.403Z,19.67
2018-08-04T08:46:50.629Z,21.55
2018-08-04T08:49:21.748Z,21.00
2018-08-04T08:51:52.074Z,19.60
2018-08-04T08:54:22.306Z,23.30
2018-08-04T08:56:51.855Z,21.27
2018-08-04T08:59:22.370Z,19.37
2018-08-04T09:01:52.806Z,20.15
2018-08-04T09:04:22.301Z,19.60
2018-08-04T09:06:52.379Z,19.75
2018-08-04T09:09:21.679Z,19.33
2018-08-04T09:11:50.949Z,20.17
2018-08-04T09:14:20.170Z,20.57
2018-08-04T09:16:49.423Z,19.52
2018-08-04T09:19:18.686Z,17.37
2018-08-04T09:21:47.833Z,20.67
2018-08-04T09:24:17.056Z,21.20
2018-08-04T09:26:46.310Z,19.07
2018-08-04T09:29:15.517Z,19.40
2018-08-04T09:31:45.103Z,18.70
2018-08-04T09:34:15.183Z,17.37
2018-08-04T09:36:45.054Z,15.18
2018-08-04T09:39:15.184Z,15.65
2018-08-04T09:41:45.211Z,16.67
2018-08-04T09:44:15.231Z,17.23
2018-08-04T09:46:45.253Z,16.50
2018-08-04T09:49:15.254Z,18.73
2018-08-04T09:51:45.194Z,16.73
2018-08-04T09:54:15.230Z,18.57
2018-08-04T09:56:45.416Z,13.86
2018-08-04T09:59:15.434Z,13.85
2018-08-04T10:01:45.429Z,14.23
2018-08-04T10:04:15.352Z,16.93
2018-08-04T10:06:45.426Z,14.33
2018-08-04T10:09:15.460Z,14.38
2018-08-04T10:11:45.346Z,13.12
2018-08-04T10:14:15.358Z,15.10
2018-08-04T10:16:45.542Z,12.15
2018-08-04T10:19:15.434Z,11.97
2018-08-04T10:21:45.453Z,10.98
2018-08-04T10:24:15.558Z,12.03
2018-08-04T10:26:45.762Z,13.25
2018-08-04T10:29:15.819Z,12.60
2018-08-04T10:31:48.261Z,10.90
2018-08-04T10:34:20.418Z,11.13
2018-08-04T10:36:49.637Z,11.43
2018-08-04T10:39:18.846Z,11.00
2018-08-04T10:41:47.994Z,11.07
2018-08-04T10:44:17.195Z,11.07
2018-08-04T10:46:46.395Z,11.17
2018-08-04T10:49:15.946Z,51.93
2018-08-04T10:51:45.749Z,10.14
2018-08-04T10:54:15.930Z,10.65
2018-08-04T10:56:46.713Z,10.90
2018-08-04T11:04:19.015Z,8.97
2018-08-04T11:06:48.906Z,10.27
2018-08-04T11:09:19.084Z,9.50
2018-08-04T11:11:49.098Z,11.00
2018-08-04T11:14:18.294Z,11.10
2018-08-04T11:16:47.495Z,10.33
2018-08-04T11:19:16.652Z,9.97
2018-08-04T11:21:46.275Z,9.10
2018-08-04T11:24:16.273Z,10.17
2018-08-04T11:26:46.124Z,9.80
2018-08-04T11:29:16.347Z,9.58
2018-08-04T11:31:46.262Z,9.20
2018-08-04T11:34:16.280Z,9.13
2018-08-04T11:36:46.290Z,9.27
2018-08-04T11:39:16.240Z,10.10
2018-08-04T11:41:46.318Z,8.60
2018-08-04T11:44:16.279Z,9.10
2018-08-04T11:46:46.300Z,9.43
2018-08-04T11:49:16.303Z,7.90
2018-08-04T11:51:46.432Z,9.18
2018-08-04T11:54:16.490Z,8.60
2018-08-04T11:56:46.330Z,8.63
2018-08-04T11:59:16.342Z,8.97
2018-08-04T12:01:46.469Z,9.15
2018-08-04T12:04:16.490Z,8.70
2018-08-04T12:06:46.566Z,8.50
2018-08-04T12:09:16.473Z,8.30
2018-08-04T12:11:46.542Z,8.80
2018-08-04T12:14:16.566Z,8.07
2018-08-04T12:16:46.547Z,8.20
2018-08-04T12:19:16.708Z,8.23
2018-08-04T12:21:46.672Z,7.75
2018-08-04T12:24:16.669Z,8.10
2018-08-04T12:26:46.715Z,8.40
2018-08-04T12:29:16.715Z,8.10
2018-08-04T12:31:46.697Z,7.58
2018-08-04T12:34:16.777Z,7.80
2018-08-04T12:56:23.100Z,6.27
2018-08-04T12:58:52.063Z,7.47
2018-08-04T13:01:21.148Z,7.50
2018-08-04T13:03:50.459Z,7.13
2018-08-04T13:06:19.634Z,7.60
2018-08-04T13:08:48.785Z,8.27
2018-08-04T13:11:17.886Z,7.23
2018-08-04T13:13:47.210Z,7.10
2018-08-04T13:16:17.210Z,6.77
2018-08-04T13:18:47.120Z,7.60
2018-08-04T13:21:17.214Z,7.93
2018-08-04T13:23:47.199Z,7.80
2018-08-04T13:26:17.234Z,6.90
2018-08-04T13:28:47.405Z,7.00
2018-08-04T13:31:17.330Z,6.83
2018-08-04T13:33:47.290Z,6.45
2018-08-04T13:36:17.288Z,6.73
2018-08-04T13:38:47.396Z,7.03
2018-08-04T13:41:17.354Z,7.63
2018-08-04T13:43:47.086Z,8.10
2018-08-04T13:46:17.173Z,7.70
2018-08-04T13:48:47.409Z,8.90
2018-08-04T13:51:17.383Z,9.30
2018-08-04T13:53:47.330Z,8.43
2018-08-04T13:56:17.446Z,9.10
2018-08-04T13:58:47.509Z,8.75
2018-08-04T14:01:17.582Z,8.10
2018-08-04T14:03:47.551Z,8.80
2018-08-04T14:06:17.615Z,9.20
2018-08-04T14:08:47.575Z,9.35
2018-08-04T14:11:17.627Z,9.55
2018-08-04T14:13:47.647Z,9.80
2018-08-04T14:16:17.760Z,9.20
2018-08-04T14:18:47.751Z,9.25
2018-08-04T14:21:17.789Z,10.00
2018-08-04T14:23:47.744Z,8.98
2018-08-04T14:26:18.345Z,8.73
2018-08-04T14:28:48.169Z,12.83
2018-08-04T14:31:18.106Z,9.93
2018-08-04T14:59:56.977Z,8.60
2018-08-04T15:02:27.592Z,10.18
2018-08-04T15:05:02.141Z,9.40
2018-08-04T15:07:31.875Z,9.00
2018-08-04T15:10:01.549Z,9.10
2018-08-04T15:12:31.877Z,10.30
2018-08-04T15:15:02.460Z,9.55
2018-08-04T15:17:32.993Z,10.25
2018-08-04T15:20:02.619Z,8.80
2018-08-04T15:22:32.785Z,9.35
2018-08-04T15:25:02.726Z,9.00
2018-08-04T15:27:32.582Z,9.63
2018-08-04T15:30:02.523Z,9.00
2018-08-04T15:32:31.902Z,8.60
2018-08-04T15:35:01.514Z,9.78
2018-08-04T15:37:30.688Z,8.65
2018-08-04T15:39:59.902Z,9.37
2018-08-04T15:42:29.090Z,9.10
2018-08-04T15:44:58.254Z,8.67
2018-08-04T15:47:27.394Z,9.73
2018-08-04T15:49:56.603Z,8.10
2018-08-04T15:52:25.794Z,9.00
2018-08-04T15:54:54.930Z,8.50
2018-08-04T15:57:24.225Z,8.33
2018-08-04T15:59:53.398Z,10.17
2018-08-04T16:02:22.581Z,10.07
2018-08-04T16:04:56.594Z,9.10
2018-08-04T16:07:25.835Z,8.90
2018-08-04T16:09:55.370Z,8.43
2018-08-04T16:12:24.566Z,9.15
2018-08-04T16:14:53.870Z,8.15
2018-08-04T16:17:24.098Z,9.13
2018-08-04T16:19:53.245Z,9.50
2018-08-04T16:22:22.421Z,9.10
2018-08-04T16:24:51.611Z,9.10
2018-08-04T16:27:20.739Z,9.57
2018-08-04T16:29:49.882Z,9.23
2018-08-04T16:32:18.990Z,9.30
2018-08-04T16:34:48.957Z,8.60
2018-08-04T16:37:19.054Z,8.57
2018-08-04T16:39:49.123Z,10.25
2018-08-04T16:42:19.135Z,9.60
2018-08-04T16:44:49.158Z,9.47
2018-08-04T16:47:19.122Z,8.80
2018-08-04T16:49:49.140Z,8.18
2018-08-04T16:52:19.037Z,9.10
2018-08-04T16:54:49.156Z,8.95
2018-08-04T16:57:19.218Z,9.25
2018-08-04T16:59:49.200Z,9.00
2018-08-04T17:02:24.330Z,9.80
2018-08-04T17:04:54.325Z,9.53
2018-08-04T17:07:25.619Z,9.95
2018-08-04T17:09:56.446Z,10.90
2018-08-04T17:12:27.954Z,10.82
2018-08-04T17:14:58.246Z,12.45
2018-08-04T17:17:27.454Z,11.07
2018-08-04T17:19:57.775Z,10.18
2018-08-04T17:22:27.851Z,11.66
2018-08-04T17:24:57.053Z,13.08
2018-08-04T17:27:27.788Z,12.00
2018-08-04T17:29:58.861Z,12.00
2018-08-04T17:32:28.838Z,13.10
2018-08-04T17:34:58.928Z,13.20
2018-08-04T18:00:17.405Z,12.15
2018-08-04T18:02:46.718Z,12.93
2018-08-04T18:05:15.935Z,12.00
2018-08-04T18:07:45.215Z,13.77
2018-08-04T18:10:14.898Z,13.90
2018-08-04T18:12:44.801Z,12.50
2018-08-04T18:15:15.475Z,12.10
2018-08-04T18:17:44.671Z,12.17
2018-08-04T18:20:13.832Z,11.97
2018-08-04T18:22:42.909Z,13.25
2018-08-04T18:25:12.073Z,12.80
2018-08-04T18:27:41.282Z,12.07
2018-08-04T18:30:10.394Z,13.07
2018-08-04T18:32:39.662Z,14.10
2018-08-04T18:35:08.817Z,13.70
2018-08-04T18:37:38.093Z,13.30
2018-08-04T18:40:08.031Z,14.03
2018-08-04T18:42:37.286Z,12.58
2018-08-04T18:45:07.092Z,13.93
2018-08-04T18:47:36.334Z,13.55
2018-08-04T18:50:05.640Z,14.20
2018-08-04T18:52:34.712Z,15.57
2018-08-04T18:55:03.941Z,13.95
2018-08-04T18:57:33.170Z,13.83
2018-08-04T19:00:02.342Z,13.40
2018-08-04T19:02:31.425Z,13.53
2018-08-04T19:05:00.825Z,14.37
2018-08-04T19:07:29.991Z,14.28
2018-08-04T19:09:59.242Z,13.88
2018-08-04T19:12:28.526Z,13.70
2018-08-04T19:14:57.725Z,14.28
2018-08-04T19:17:27.497Z,14.15
2018-08-04T19:19:56.733Z,14.17
2018-08-04T19:22:26.043Z,13.73
2018-08-04T19:24:55.252Z,13.43
2018-08-04T19:27:24.407Z,15.53
2018-08-04T19:29:53.562Z,13.90
2018-08-04T19:32:22.687Z,15.20
2018-08-04T19:34:51.934Z,15.87
2018-08-04T19:37:21.167Z,16.60
2018-08-04T19:39:50.618Z,16.07
2018-08-04T19:42:20.542Z,15.97
2018-08-04T19:44:50.582Z,16.50
2018-08-04T19:47:20.669Z,14.90
2018-08-04T19:49:50.721Z,15.35
2018-08-04T19:52:20.775Z,14.70
2018-08-04T19:54:50.812Z,15.60
2018-08-04T19:57:20.509Z,14.18
2018-08-04T19:59:50.703Z,15.40
2018-08-04T20:02:20.714Z,15.30
2018-08-04T20:04:50.782Z,15.68
2018-08-04T20:07:20.869Z,14.65
2018-08-04T20:09:50.864Z,14.85
2018-08-04T20:12:20.902Z,14.60
2018-08-04T20:14:51.015Z,15.03
2018-08-04T20:17:20.986Z,15.32
2018-08-04T20:19:55.666Z,15.20
2018-08-04T20:22:24.812Z,16.30
2018-08-04T20:24:54.098Z,14.37
2018-08-04T20:27:23.314Z,15.93
2018-08-04T20:29:52.446Z,15.63
2018-08-04T20:32:21.664Z,15.87
2018-08-04T20:34:51.174Z,15.33
2018-08-04T20:37:21.166Z,14.55
2018-08-04T20:39:51.199Z,16.17
2018-08-04T20:42:21.014Z,15.17
2018-08-04T20:44:51.211Z,16.37
2018-08-04T20:47:32.101Z,15.80
2018-08-04T20:50:04.202Z,15.77
2018-08-04T20:52:33.725Z,15.18
2018-08-04T20:55:03.014Z,16.37
2018-08-04T20:57:32.234Z,16.27
2018-08-04T21:00:01.497Z,15.35
2018-08-04T21:02:30.694Z,15.27
2018-08-04T21:04:59.853Z,15.55
2018-08-04T21:07:30.662Z,16.45
2018-08-04T21:10:00.742Z,18.53
2018-08-04T21:12:34.542Z,15.23
2018-08-04T21:15:03.642Z,16.10
2018-08-04T21:17:32.856Z,15.47
2018-08-04T21:20:02.072Z,16.32
2018-08-04T21:22:31.286Z,16.43
2018-08-04T21:25:00.471Z,16.00
2018-08-04T21:27:29.674Z,16.43
2018-08-04T21:29:58.945Z,17.07
2018-08-04T21:32:28.192Z,17.47
2018-08-04T21:34:57.370Z,17.67
2018-08-04T21:37:27.575Z,15.94
2018-08-04T21:39:56.723Z,17.52
2018-08-04T21:42:25.962Z,16.95
2018-08-04T21:44:55.185Z,17.50
2018-08-04T21:47:24.370Z,18.20
2018-08-04T21:49:53.582Z,17.67
2018-08-04T21:52:22.838Z,17.40
2018-08-04T21:54:52.206Z,16.73
2018-08-04T21:57:21.850Z,16.23
2018-08-04T21:59:52.731Z,17.15
2018-08-04T22:02:21.886Z,18.57
2018-08-04T22:04:51.931Z,15.55
2018-08-04T22:07:48.791Z,17.92
2018-08-04T22:10:17.821Z,18.30
2018-08-04T22:12:46.938Z,19.10
2018-08-04T22:15:16.471Z,18.40
2018-08-04T22:17:45.676Z,19.20
2018-08-04T22:20:16.004Z,17.10
2018-08-04T22:22:45.137Z,18.87
2018-08-04T22:25:15.430Z,16.80
2018-08-04T22:27:44.562Z,18.90
2018-08-04T22:30:14.870Z,17.93
2018-08-04T22:32:44.670Z,17.53
2018-08-04T22:35:20.137Z,19.10
2018-08-04T22:37:49.449Z,18.27
2018-08-04T22:40:21.391Z,18.60
2018-08-04T22:42:50.550Z,18.87
2018-08-04T22:46:23.311Z,18.07
2018-08-04T22:48:53.662Z,17.50
2018-08-04T22:51:27.170Z,18.10
2018-08-04T22:53:56.618Z,19.27
2018-08-04T22:56:26.195Z,17.80
2018-08-04T22:58:55.505Z,18.63
2018-08-04T23:01:24.648Z,18.70
2018-08-04T23:03:53.867Z,18.70
2018-08-04T23:06:23.007Z,18.53
2018-08-04T23:08:52.415Z,19.37
2018-08-04T23:11:22.462Z,18.65
2018-08-04T23:13:52.389Z,19.50
2018-08-04T23:16:22.518Z,18.40
2018-08-04T23:18:52.426Z,18.48
2018-08-04T23:21:22.553Z,19.10
2018-08-04T23:23:53.097Z,18.10
2018-08-04T23:26:22.446Z,19.20
2018-08-04T23:28:52.702Z,17.70
2018-08-04T23:31:24.195Z,17.92
2018-08-04T23:55:28.674Z,18.30
2018-08-04T23:57:57.755Z,18.50
